sensor_id;sensor_type;location;lat;lon;timestamp;P1;durP1;ratioP1;P2;durP2;ratioP2
76121;SDS011;64853;53.200;6.080;2023-04-24T00:02:33;0.50;;;0.30;;
76121;SDS011;64853;53.200;6.080;2023-04-24T00:07:27;1.25;;;0.20;;
76121;SDS011;64853;53.200;6.080;2023-04-24T00:12:20;0.75;;;0.35;;
76121;SDS011;64853;53.200;6.080;2023-04-24T00:17:12;1.02;;;0.28;;
76121;SDS011;64853;53.200;6.080;2023-04-24T00:22:03;0.28;;;0.28;;
76121;SDS011;64853;53.200;6.080;2023-04-24T00:26:55;0.22;;;0.22;;
76121;SDS011;64853;53.200;6.080;2023-04-24T00:31:48;0.20;;;0.20;;
76121;SDS011;64853;53.200;6.080;2023-04-24T00:36:39;0.30;;;0.20;;
76121;SDS011;64853;53.200;6.080;2023-04-24T00:46:22;1.05;;;0.50;;
76121;SDS011;64853;53.200;6.080;2023-04-24T00:51:15;0.22;;;0.20;;
76121;SDS011;64853;53.200;6.080;2023-04-24T00:56:06;0.70;;;0.30;;
76121;SDS011;64853;53.200;6.080;2023-04-24T01:00:58;0.52;;;0.30;;
76121;SDS011;64853;53.200;6.080;2023-04-24T01:05:50;0.45;;;0.30;;
76121;SDS011;64853;53.200;6.080;2023-04-24T01:15:36;0.30;;;0.30;;
76121;SDS011;64853;53.200;6.080;2023-04-24T01:25:21;0.95;;;0.22;;
76121;SDS011;64853;53.200;6.080;2023-04-24T01:30:13;0.50;;;0.50;;
76121;SDS011;64853;53.200;6.080;2023-04-24T01:35:05;0.20;;;0.13;;
76121;SDS011;64853;53.200;6.080;2023-04-24T01:39:58;0.45;;;0.45;;
76121;SDS011;64853;53.200;6.080;2023-04-24T01:49:43;0.70;;;0.40;;
76121;SDS011;64853;53.200;6.080;2023-04-24T01:54:36;0.60;;;0.35;;
76121;SDS011;64853;53.200;6.080;2023-04-24T01:59:28;0.35;;;0.30;;
76121;SDS011;64853;53.200;6.080;2023-04-24T02:04:22;0.30;;;0.30;;
76121;SDS011;64853;53.200;6.080;2023-04-24T02:09:13;0.20;;;0.20;;
76121;SDS011;64853;53.200;6.080;2023-04-24T02:14:05;0.35;;;0.35;;
76121;SDS011;64853;53.200;6.080;2023-04-24T02:18:56;0.10;;;0.10;;
76121;SDS011;64853;53.200;6.080;2023-04-24T02:23:49;0.20;;;0.20;;
76121;SDS011;64853;53.200;6.080;2023-04-24T02:28:40;0.55;;;0.35;;
76121;SDS011;64853;53.200;6.080;2023-04-24T02:33:32;0.40;;;0.40;;
76121;SDS011;64853;53.200;6.080;2023-04-24T02:38:23;0.60;;;0.52;;
76121;SDS011;64853;53.200;6.080;2023-04-24T02:43:16;0.20;;;0.20;;
76121;SDS011;64853;53.200;6.080;2023-04-24T02:48:07;0.52;;;0.35;;
76121;SDS011;64853;53.200;6.080;2023-04-24T02:52:59;0.65;;;0.47;;
76121;SDS011;64853;53.200;6.080;2023-04-24T02:57:50;0.35;;;0.30;;
76121;SDS011;64853;53.200;6.080;2023-04-24T03:02:43;1.05;;;0.30;;
76121;SDS011;64853;53.200;6.080;2023-04-24T03:07:34;0.20;;;0.20;;
76121;SDS011;64853;53.200;6.080;2023-04-24T03:12:26;0.30;;;0.30;;
76121;SDS011;64853;53.200;6.080;2023-04-24T03:17:18;0.30;;;0.30;;
76121;SDS011;64853;53.200;6.080;2023-04-24T03:22:11;0.50;;;0.40;;
76121;SDS011;64853;53.200;6.080;2023-04-24T03:27:02;1.25;;;0.50;;
76121;SDS011;64853;53.200;6.080;2023-04-24T03:31:54;0.50;;;0.32;;
76121;SDS011;64853;53.200;6.080;2023-04-24T03:36:45;0.50;;;0.38;;
76121;SDS011;64853;53.200;6.080;2023-04-24T03:41:39;0.50;;;0.30;;
76121;SDS011;64853;53.200;6.080;2023-04-24T03:46:31;0.30;;;0.30;;
76121;SDS011;64853;53.200;6.080;2023-04-24T03:51:22;0.25;;;0.20;;
76121;SDS011;64853;53.200;6.080;2023-04-24T03:56:14;0.20;;;0.20;;
76121;SDS011;64853;53.200;6.080;2023-04-24T04:01:06;0.30;;;0.28;;
76121;SDS011;64853;53.200;6.080;2023-04-24T04:05:58;0.20;;;0.20;;
76121;SDS011;64853;53.200;6.080;2023-04-24T04:10:49;0.17;;;0.15;;
76121;SDS011;64853;53.200;6.080;2023-04-24T04:15:41;0.20;;;0.13;;
76121;SDS011;64853;53.200;6.080;2023-04-24T04:20:34;0.10;;;0.10;;
76121;SDS011;64853;53.200;6.080;2023-04-24T04:25:25;0.20;;;0.20;;
76121;SDS011;64853;53.200;6.080;2023-04-24T04:30:17;0.10;;;0.10;;
76121;SDS011;64853;53.200;6.080;2023-04-24T04:40:01;0.08;;;0.08;;
76121;SDS011;64853;53.200;6.080;2023-04-24T04:44:56;0.20;;;0.20;;
76121;SDS011;64853;53.200;6.080;2023-04-24T04:49:48;0.20;;;0.15;;
76121;SDS011;64853;53.200;6.080;2023-04-24T04:54:41;0.10;;;0.10;;
76121;SDS011;64853;53.200;6.080;2023-04-24T04:59:33;0.10;;;0.10;;
76121;SDS011;64853;53.200;6.080;2023-04-24T05:04:25;0.10;;;0.10;;
76121;SDS011;64853;53.200;6.080;2023-04-24T05:09:17;0.20;;;0.10;;
76121;SDS011;64853;53.200;6.080;2023-04-24T05:14:08;0.73;;;0.10;;
76121;SDS011;64853;53.200;6.080;2023-04-24T05:19:01;0.82;;;0.20;;
76121;SDS011;64853;53.200;6.080;2023-04-24T05:23:53;0.10;;;0.10;;
76121;SDS011;64853;53.200;6.080;2023-04-24T05:28:44;0.10;;;0.10;;
76121;SDS011;64853;53.200;6.080;2023-04-24T05:33:36;0.20;;;0.10;;
76121;SDS011;64853;53.200;6.080;2023-04-24T05:38:28;0.13;;;0.10;;
76121;SDS011;64853;53.200;6.080;2023-04-24T05:43:20;0.10;;;0.10;;
76121;SDS011;64853;53.200;6.080;2023-04-24T05:48:11;0.28;;;0.20;;
76121;SDS011;64853;53.200;6.080;2023-04-24T05:53:03;0.15;;;0.15;;
76121;SDS011;64853;53.200;6.080;2023-04-24T05:57:58;0.10;;;0.10;;
76121;SDS011;64853;53.200;6.080;2023-04-24T06:02:50;1.85;;;0.20;;
76121;SDS011;64853;53.200;6.080;2023-04-24T06:07:41;0.65;;;0.20;;
76121;SDS011;64853;53.200;6.080;2023-04-24T06:12:33;0.30;;;0.10;;
76121;SDS011;64853;53.200;6.080;2023-04-24T06:17:25;0.10;;;0.08;;
76121;SDS011;64853;53.200;6.080;2023-04-24T06:22:17;0.10;;;0.00;;
76121;SDS011;64853;53.200;6.080;2023-04-24T06:27:08;0.40;;;0.20;;
76121;SDS011;64853;53.200;6.080;2023-04-24T06:32:00;3.17;;;0.20;;
76121;SDS011;64853;53.200;6.080;2023-04-24T06:36:52;0.30;;;0.10;;
76121;SDS011;64853;53.200;6.080;2023-04-24T06:41:45;1.27;;;0.13;;
76121;SDS011;64853;53.200;6.080;2023-04-24T06:46:36;2.47;;;0.47;;
76121;SDS011;64853;53.200;6.080;2023-04-24T06:51:27;0.70;;;0.30;;
76121;SDS011;64853;53.200;6.080;2023-04-24T06:56:20;0.20;;;0.20;;
76121;SDS011;64853;53.200;6.080;2023-04-24T07:01:12;1.38;;;0.13;;
76121;SDS011;64853;53.200;6.080;2023-04-24T07:06:04;1.33;;;0.40;;
76121;SDS011;64853;53.200;6.080;2023-04-24T07:10:56;1.17;;;0.60;;
76121;SDS011;64853;53.200;6.080;2023-04-24T07:15:49;0.68;;;0.38;;
76121;SDS011;64853;53.200;6.080;2023-04-24T07:20:40;0.82;;;0.30;;
76121;SDS011;64853;53.200;6.080;2023-04-24T07:25:32;2.13;;;0.75;;
76121;SDS011;64853;53.200;6.080;2023-04-24T07:30:24;0.50;;;0.30;;
76121;SDS011;64853;53.200;6.080;2023-04-24T07:35:17;0.77;;;0.30;;
76121;SDS011;64853;53.200;6.080;2023-04-24T07:40:10;2.35;;;0.70;;
76121;SDS011;64853;53.200;6.080;2023-04-24T07:45:02;0.73;;;0.60;;
76121;SDS011;64853;53.200;6.080;2023-04-24T07:49:54;1.75;;;0.63;;
76121;SDS011;64853;53.200;6.080;2023-04-24T07:54:47;1.02;;;0.50;;
76121;SDS011;64853;53.200;6.080;2023-04-24T07:59:39;1.48;;;0.60;;
76121;SDS011;64853;53.200;6.080;2023-04-24T08:04:31;0.95;;;0.70;;
76121;SDS011;64853;53.200;6.080;2023-04-24T08:09:22;1.58;;;0.60;;
76121;SDS011;64853;53.200;6.080;2023-04-24T08:14:15;0.85;;;0.70;;
76121;SDS011;64853;53.200;6.080;2023-04-24T08:19:06;2.28;;;0.63;;
76121;SDS011;64853;53.200;6.080;2023-04-24T08:23:58;2.22;;;0.85;;
76121;SDS011;64853;53.200;6.080;2023-04-24T08:28:49;2.63;;;1.13;;
76121;SDS011;64853;53.200;6.080;2023-04-24T08:38:35;1.50;;;0.77;;
76121;SDS011;64853;53.200;6.080;2023-04-24T08:43:27;1.23;;;0.90;;
76121;SDS011;64853;53.200;6.080;2023-04-24T08:48:19;1.52;;;0.90;;
76121;SDS011;64853;53.200;6.080;2023-04-24T08:53:14;1.20;;;0.93;;
76121;SDS011;64853;53.200;6.080;2023-04-24T08:58:06;0.90;;;0.90;;
76121;SDS011;64853;53.200;6.080;2023-04-24T09:03:00;1.90;;;1.10;;
76121;SDS011;64853;53.200;6.080;2023-04-24T09:07:53;3.90;;;1.50;;
76121;SDS011;64853;53.200;6.080;2023-04-24T09:12:47;2.65;;;1.30;;
76121;SDS011;64853;53.200;6.080;2023-04-24T09:17:41;2.13;;;1.40;;
76121;SDS011;64853;53.200;6.080;2023-04-24T09:22:32;2.83;;;0.85;;
76121;SDS011;64853;53.200;6.080;2023-04-24T09:27:24;1.13;;;0.85;;
76121;SDS011;64853;53.200;6.080;2023-04-24T09:32:20;0.85;;;0.80;;
76121;SDS011;64853;53.200;6.080;2023-04-24T09:37:14;1.58;;;1.27;;
76121;SDS011;64853;53.200;6.080;2023-04-24T09:42:18;3.65;;;0.75;;
76121;SDS011;64853;53.200;6.080;2023-04-24T09:52:03;1.48;;;1.30;;
76121;SDS011;64853;53.200;6.080;2023-04-24T09:56:55;2.10;;;1.10;;
76121;SDS011;64853;53.200;6.080;2023-04-24T10:01:47;3.35;;;1.20;;
76121;SDS011;64853;53.200;6.080;2023-04-24T10:06:39;1.42;;;0.90;;
76121;SDS011;64853;53.200;6.080;2023-04-24T10:11:35;0.80;;;0.80;;
76121;SDS011;64853;53.200;6.080;2023-04-24T10:16:26;2.92;;;1.10;;
76121;SDS011;64853;53.200;6.080;2023-04-24T10:21:18;2.08;;;1.20;;
76121;SDS011;64853;53.200;6.080;2023-04-24T10:26:12;1.98;;;0.88;;
76121;SDS011;64853;53.200;6.080;2023-04-24T10:31:08;1.75;;;1.02;;
76121;SDS011;64853;53.200;6.080;2023-04-24T10:36:01;1.17;;;0.70;;
76121;SDS011;64853;53.200;6.080;2023-04-24T10:40:56;0.93;;;0.70;;
76121;SDS011;64853;53.200;6.080;2023-04-24T10:46:01;2.20;;;0.60;;
76121;SDS011;64853;53.200;6.080;2023-04-24T10:50:55;2.67;;;0.80;;
76121;SDS011;64853;53.200;6.080;2023-04-24T10:55:47;3.42;;;0.82;;
76121;SDS011;64853;53.200;6.080;2023-04-24T11:00:40;1.98;;;0.75;;
76121;SDS011;64853;53.200;6.080;2023-04-24T11:05:48;3.22;;;1.10;;
76121;SDS011;64853;53.200;6.080;2023-04-24T11:15:40;1.73;;;0.70;;
76121;SDS011;64853;53.200;6.080;2023-04-24T11:20:32;1.25;;;0.40;;
76121;SDS011;64853;53.200;6.080;2023-04-24T11:25:23;1.77;;;0.82;;
76121;SDS011;64853;53.200;6.080;2023-04-24T11:30:18;1.25;;;0.47;;
76121;SDS011;64853;53.200;6.080;2023-04-24T11:35:13;2.28;;;0.40;;
76121;SDS011;64853;53.200;6.080;2023-04-24T11:40:07;1.13;;;0.40;;
76121;SDS011;64853;53.200;6.080;2023-04-24T11:44:59;1.67;;;0.45;;
76121;SDS011;64853;53.200;6.080;2023-04-24T11:49:53;1.23;;;0.43;;
76121;SDS011;64853;53.200;6.080;2023-04-24T11:54:48;0.50;;;0.30;;
76121;SDS011;64853;53.200;6.080;2023-04-24T11:59:41;1.00;;;0.32;;
76121;SDS011;64853;53.200;6.080;2023-04-24T12:09:41;0.95;;;0.30;;
76121;SDS011;64853;53.200;6.080;2023-04-24T12:14:41;0.80;;;0.40;;
76121;SDS011;64853;53.200;6.080;2023-04-24T12:19:33;0.68;;;0.30;;
76121;SDS011;64853;53.200;6.080;2023-04-24T12:24:25;0.50;;;0.22;;
76121;SDS011;64853;53.200;6.080;2023-04-24T12:29:20;0.73;;;0.30;;
76121;SDS011;64853;53.200;6.080;2023-04-24T12:34:17;2.13;;;0.22;;
76121;SDS011;64853;53.200;6.080;2023-04-24T12:39:14;1.27;;;0.30;;
76121;SDS011;64853;53.200;6.080;2023-04-24T12:44:10;1.38;;;0.32;;
76121;SDS011;64853;53.200;6.080;2023-04-24T12:49:03;1.60;;;0.30;;
76121;SDS011;64853;53.200;6.080;2023-04-24T12:53:55;1.23;;;0.25;;
76121;SDS011;64853;53.200;6.080;2023-04-24T12:58:46;0.73;;;0.30;;
76121;SDS011;64853;53.200;6.080;2023-04-24T13:03:37;0.50;;;0.20;;
76121;SDS011;64853;53.200;6.080;2023-04-24T13:08:30;0.40;;;0.25;;
76121;SDS011;64853;53.200;6.080;2023-04-24T13:13:22;3.97;;;0.32;;
76121;SDS011;64853;53.200;6.080;2023-04-24T13:18:13;1.08;;;0.20;;
76121;SDS011;64853;53.200;6.080;2023-04-24T13:23:05;1.48;;;0.20;;
76121;SDS011;64853;53.200;6.080;2023-04-24T13:27:57;0.75;;;0.60;;
76121;SDS011;64853;53.200;6.080;2023-04-24T13:32:49;1.17;;;0.30;;
76121;SDS011;64853;53.200;6.080;2023-04-24T13:37:40;1.23;;;0.40;;
76121;SDS011;64853;53.200;6.080;2023-04-24T13:42:32;1.65;;;0.30;;
76121;SDS011;64853;53.200;6.080;2023-04-24T13:47:25;0.82;;;0.82;;
76121;SDS011;64853;53.200;6.080;2023-04-24T13:52:16;1.90;;;0.60;;
76121;SDS011;64853;53.200;6.080;2023-04-24T13:57:08;1.25;;;0.52;;
76121;SDS011;64853;53.200;6.080;2023-04-24T14:01:59;2.30;;;0.60;;
76121;SDS011;64853;53.200;6.080;2023-04-24T14:06:52;0.38;;;0.32;;
76121;SDS011;64853;53.200;6.080;2023-04-24T14:11:43;1.23;;;0.38;;
76121;SDS011;64853;53.200;6.080;2023-04-24T14:16:35;0.85;;;0.40;;
76121;SDS011;64853;53.200;6.080;2023-04-24T14:21:26;0.88;;;0.30;;
76121;SDS011;64853;53.200;6.080;2023-04-24T14:26:19;1.00;;;0.40;;
76121;SDS011;64853;53.200;6.080;2023-04-24T14:31:11;0.70;;;0.32;;
76121;SDS011;64853;53.200;6.080;2023-04-24T14:36:03;0.60;;;0.25;;
76121;SDS011;64853;53.200;6.080;2023-04-24T14:40:55;1.33;;;0.45;;
76121;SDS011;64853;53.200;6.080;2023-04-24T14:45:48;2.38;;;0.35;;
76121;SDS011;64853;53.200;6.080;2023-04-24T14:50:39;0.52;;;0.30;;
76121;SDS011;64853;53.200;6.080;2023-04-24T14:55:31;2.83;;;0.63;;
76121;SDS011;64853;53.200;6.080;2023-04-24T15:00:23;1.17;;;0.63;;
76121;SDS011;64853;53.200;6.080;2023-04-24T15:05:16;1.48;;;0.50;;
76121;SDS011;64853;53.200;6.080;2023-04-24T15:10:08;0.80;;;0.45;;
76121;SDS011;64853;53.200;6.080;2023-04-24T15:15:00;1.73;;;0.52;;
76121;SDS011;64853;53.200;6.080;2023-04-24T15:19:52;1.10;;;0.50;;
76121;SDS011;64853;53.200;6.080;2023-04-24T15:24:45;1.10;;;0.30;;
76121;SDS011;64853;53.200;6.080;2023-04-24T15:29:36;1.27;;;0.40;;
76121;SDS011;64853;53.200;6.080;2023-04-24T15:34:28;2.58;;;0.40;;
76121;SDS011;64853;53.200;6.080;2023-04-24T15:39:20;0.98;;;0.50;;
76121;SDS011;64853;53.200;6.080;2023-04-24T15:44:14;1.13;;;0.50;;
76121;SDS011;64853;53.200;6.080;2023-04-24T15:49:06;1.10;;;0.52;;
76121;SDS011;64853;53.200;6.080;2023-04-24T15:53:57;1.40;;;0.50;;
76121;SDS011;64853;53.200;6.080;2023-04-24T15:58:49;2.63;;;0.75;;
76121;SDS011;64853;53.200;6.080;2023-04-24T16:03:41;1.35;;;0.68;;
76121;SDS011;64853;53.200;6.080;2023-04-24T16:08:33;2.45;;;0.65;;
76121;SDS011;64853;53.200;6.080;2023-04-24T16:18:18;1.88;;;0.43;;
76121;SDS011;64853;53.200;6.080;2023-04-24T16:23:11;1.08;;;0.50;;
76121;SDS011;64853;53.200;6.080;2023-04-24T16:28:03;1.23;;;0.68;;
76121;SDS011;64853;53.200;6.080;2023-04-24T16:32:55;0.73;;;0.22;;
76121;SDS011;64853;53.200;6.080;2023-04-24T16:37:46;1.05;;;0.57;;
76121;SDS011;64853;53.200;6.080;2023-04-24T16:42:39;1.00;;;0.47;;
76121;SDS011;64853;53.200;6.080;2023-04-24T16:47:30;0.65;;;0.43;;
76121;SDS011;64853;53.200;6.080;2023-04-24T16:52:22;2.25;;;0.43;;
76121;SDS011;64853;53.200;6.080;2023-04-24T16:57:14;1.60;;;0.50;;
76121;SDS011;64853;53.200;6.080;2023-04-24T17:02:08;0.82;;;0.50;;
76121;SDS011;64853;53.200;6.080;2023-04-24T17:06:59;1.15;;;0.30;;
76121;SDS011;64853;53.200;6.080;2023-04-24T17:16:42;1.83;;;0.50;;
76121;SDS011;64853;53.200;6.080;2023-04-24T17:21:36;1.58;;;0.30;;
76121;SDS011;64853;53.200;6.080;2023-04-24T17:26:27;1.17;;;0.30;;
76121;SDS011;64853;53.200;6.080;2023-04-24T17:31:21;0.75;;;0.20;;
76121;SDS011;64853;53.200;6.080;2023-04-24T17:36:12;1.38;;;0.40;;
76121;SDS011;64853;53.200;6.080;2023-04-24T17:41:05;1.42;;;0.50;;
76121;SDS011;64853;53.200;6.080;2023-04-24T17:45:57;1.02;;;0.30;;
76121;SDS011;64853;53.200;6.080;2023-04-24T17:50:49;0.30;;;0.20;;
76121;SDS011;64853;53.200;6.080;2023-04-24T17:55:41;1.88;;;0.60;;
76121;SDS011;64853;53.200;6.080;2023-04-24T18:00:34;1.05;;;0.40;;
76121;SDS011;64853;53.200;6.080;2023-04-24T18:05:26;0.60;;;0.40;;
76121;SDS011;64853;53.200;6.080;2023-04-24T18:10:18;2.45;;;0.50;;
76121;SDS011;64853;53.200;6.080;2023-04-24T18:15:09;2.63;;;0.80;;
76121;SDS011;64853;53.200;6.080;2023-04-24T18:20:03;1.55;;;0.68;;
76121;SDS011;64853;53.200;6.080;2023-04-24T18:24:55;2.83;;;0.55;;
76121;SDS011;64853;53.200;6.080;2023-04-24T18:29:47;1.60;;;0.82;;
76121;SDS011;64853;53.200;6.080;2023-04-24T18:34:38;2.28;;;0.50;;
76121;SDS011;64853;53.200;6.080;2023-04-24T18:39:31;1.48;;;0.40;;
76121;SDS011;64853;53.200;6.080;2023-04-24T18:44:22;0.68;;;0.40;;
76121;SDS011;64853;53.200;6.080;2023-04-24T18:49:14;1.30;;;0.38;;
76121;SDS011;64853;53.200;6.080;2023-04-24T18:54:06;0.55;;;0.25;;
76121;SDS011;64853;53.200;6.080;2023-04-24T18:58:59;1.08;;;0.47;;
76121;SDS011;64853;53.200;6.080;2023-04-24T19:03:50;1.00;;;0.50;;
76121;SDS011;64853;53.200;6.080;2023-04-24T19:08:42;1.33;;;0.60;;
76121;SDS011;64853;53.200;6.080;2023-04-24T19:13:33;2.63;;;0.60;;
76121;SDS011;64853;53.200;6.080;2023-04-24T19:18:26;1.55;;;0.52;;
76121;SDS011;64853;53.200;6.080;2023-04-24T19:23:18;0.43;;;0.20;;
76121;SDS011;64853;53.200;6.080;2023-04-24T19:28:09;1.05;;;0.40;;
76121;SDS011;64853;53.200;6.080;2023-04-24T19:33:01;0.68;;;0.40;;
76121;SDS011;64853;53.200;6.080;2023-04-24T19:37:54;1.30;;;0.65;;
76121;SDS011;64853;53.200;6.080;2023-04-24T19:42:45;0.13;;;0.13;;
76121;SDS011;64853;53.200;6.080;2023-04-24T19:47:37;0.63;;;0.40;;
76121;SDS011;64853;53.200;6.080;2023-04-24T19:52:28;0.45;;;0.35;;
76121;SDS011;64853;53.200;6.080;2023-04-24T19:57:21;0.70;;;0.50;;
76121;SDS011;64853;53.200;6.080;2023-04-24T20:02:13;0.63;;;0.45;;
76121;SDS011;64853;53.200;6.080;2023-04-24T20:07:04;1.73;;;0.77;;
76121;SDS011;64853;53.200;6.080;2023-04-24T20:11:56;1.40;;;0.63;;
76121;SDS011;64853;53.200;6.080;2023-04-24T20:16:48;2.60;;;0.65;;
76121;SDS011;64853;53.200;6.080;2023-04-24T20:21:40;2.97;;;0.70;;
76121;SDS011;64853;53.200;6.080;2023-04-24T20:26:31;1.85;;;0.52;;
76121;SDS011;64853;53.200;6.080;2023-04-24T20:31:23;1.77;;;0.70;;
76121;SDS011;64853;53.200;6.080;2023-04-24T20:36:16;0.85;;;0.40;;
76121;SDS011;64853;53.200;6.080;2023-04-24T20:41:07;2.90;;;0.52;;
76121;SDS011;64853;53.200;6.080;2023-04-24T20:45:59;2.90;;;0.65;;
76121;SDS011;64853;53.200;6.080;2023-04-24T20:50:50;2.30;;;0.55;;
76121;SDS011;64853;53.200;6.080;2023-04-24T20:55:44;2.83;;;0.77;;
76121;SDS011;64853;53.200;6.080;2023-04-24T21:00:36;3.30;;;1.50;;
76121;SDS011;64853;53.200;6.080;2023-04-24T21:05:27;1.48;;;0.60;;
76121;SDS011;64853;53.200;6.080;2023-04-24T21:10:19;2.55;;;0.60;;
76121;SDS011;64853;53.200;6.080;2023-04-24T21:15:12;1.80;;;1.02;;
76121;SDS011;64853;53.200;6.080;2023-04-24T21:20:03;2.30;;;1.02;;
76121;SDS011;64853;53.200;6.080;2023-04-24T21:24:56;2.13;;;0.57;;
76121;SDS011;64853;53.200;6.080;2023-04-24T21:29:47;2.47;;;0.90;;
76121;SDS011;64853;53.200;6.080;2023-04-24T21:34:40;2.60;;;0.55;;
76121;SDS011;64853;53.200;6.080;2023-04-24T21:39:31;2.95;;;0.80;;
76121;SDS011;64853;53.200;6.080;2023-04-24T21:44:23;3.72;;;1.05;;
76121;SDS011;64853;53.200;6.080;2023-04-24T21:54:07;3.17;;;0.85;;
76121;SDS011;64853;53.200;6.080;2023-04-24T21:58:58;2.65;;;0.80;;
76121;SDS011;64853;53.200;6.080;2023-04-24T22:03:50;2.08;;;0.80;;
76121;SDS011;64853;53.200;6.080;2023-04-24T22:08:41;2.47;;;0.82;;
76121;SDS011;64853;53.200;6.080;2023-04-24T22:13:37;2.22;;;0.70;;
76121;SDS011;64853;53.200;6.080;2023-04-24T22:18:29;2.17;;;0.70;;
76121;SDS011;64853;53.200;6.080;2023-04-24T22:23:21;3.25;;;0.80;;
76121;SDS011;64853;53.200;6.080;2023-04-24T22:28:12;2.08;;;1.10;;
76121;SDS011;64853;53.200;6.080;2023-04-24T22:33:05;4.32;;;0.98;;
76121;SDS011;64853;53.200;6.080;2023-04-24T22:37:56;1.75;;;0.60;;
76121;SDS011;64853;53.200;6.080;2023-04-24T22:42:48;2.35;;;0.63;;
76121;SDS011;64853;53.200;6.080;2023-04-24T22:47:40;3.15;;;0.95;;
76121;SDS011;64853;53.200;6.080;2023-04-24T22:52:33;2.40;;;0.73;;
76121;SDS011;64853;53.200;6.080;2023-04-24T22:57:25;2.47;;;0.63;;
76121;SDS011;64853;53.200;6.080;2023-04-24T23:02:18;2.90;;;0.90;;
76121;SDS011;64853;53.200;6.080;2023-04-24T23:07:10;2.67;;;0.80;;
76121;SDS011;64853;53.200;6.080;2023-04-24T23:12:03;1.38;;;0.82;;
76121;SDS011;64853;53.200;6.080;2023-04-24T23:16:54;1.88;;;0.70;;
76121;SDS011;64853;53.200;6.080;2023-04-24T23:21:46;2.60;;;0.68;;
76121;SDS011;64853;53.200;6.080;2023-04-24T23:26:37;0.65;;;0.50;;
76121;SDS011;64853;53.200;6.080;2023-04-24T23:31:30;2.33;;;0.75;;
76121;SDS011;64853;53.200;6.080;2023-04-24T23:36:21;3.25;;;0.65;;
76121;SDS011;64853;53.200;6.080;2023-04-24T23:41:13;1.70;;;0.88;;
76121;SDS011;64853;53.200;6.080;2023-04-24T23:46:04;1.60;;;0.57;;
76121;SDS011;64853;53.200;6.080;2023-04-24T23:50:57;2.40;;;0.90;;
76121;SDS011;64853;53.200;6.080;2023-04-24T23:55:49;3.45;;;1.00;;
